Ely, NV

11:59 PM PDT on May 06, 2015 (GMT -0700)
Ely | | Change Station
CLOSE
Current Station
Airport
Location: Ely,
Elevation: 6260 ft
Nearby Weather Stations

Elev 6260 ft 39.30 °N, 114.85 °W | Updated 6 minutes ago

Overcast
Overcast
39 °F
Feels Like 32 °F
N
10
Wind Variable Wind from South

Today
High -- | Low -- °F
--% Chance of Precip.
Yesterday
High -- | Low -- °F
Precip. -- in
5:35 AM 7:37 PM
Waning Gibbous, 90% visible
Pressure 29.66 in
Visibility 10.0 miles
Clouds Few 4600 ft
Mostly Cloudy 6500 ft
Overcast 8000 ft
Windchill 32 °F
Dew Point 38 °F
Humidity 96%
Rainfall 0.01 in
Snow Depth Not available.
UV 0 out of 12
Pollen 4.00 out of 12
Air Quality Not available.
Flu Activity Sporadic
METAR KELY 070653Z AUTO 19009KT 10SM FEW046 BKN065 OVC080 04/03 A2981 RMK AO2 SLP043 T00390033

More Conditions Fewer Conditions

Pressure 29.66 in
Visibility 10.0 miles
Clouds Few 4600 ft
Mostly Cloudy 6500 ft
Overcast 8000 ft
Windchill 32 °F
Dew Point 38 °F
Humidity 96%
Rainfall 0.01 in
Snow Depth Not available.
UV 0 out of 12
Pollen 4.00 out of 12
Air Quality Not available.
Flu Activity Sporadic
METAR KELY 070653Z AUTO 19009KT 10SM FEW046 BKN065 OVC080 04/03 A2981 RMK AO2 SLP043 T00390033

More Conditions Fewer Conditions

10-Day Weather Forecast

Almanac

Astronomy

May. 06, 2015 Rise Set
Actual Time
Civil Twilight
Nautical Twilight
Astronomical Twilight
Moon
Length of Visible Light
Length of Day
Tomorrow will be .
, % of the Moon is Illuminated

Today's Extremes

State Highs State Lows

Community

WunderPhotos

Upload Photos

1,819,126 photos uploaded!

WunderBlogs® & News

Nearby

Air Quality

  Air Quality AQ Index Pollutant
Not available.

Snow Depth

Station Depth Elevation

Earthquake Activity

City Distance Mag. Time & Date
Minimum magnitude displayed is 2.5.

Coastal Water Temperatures

Place Temperature

Stations

Nearby Weather Stations

Station Location Temp. Windchill Dew Point Humidity Wind Precip. Elev Updated Type